Time;durP1;ratioP1;P1;durP2;ratioP2;P2;SDS_P1;SDS_P2;PMS_P1;PMS_P2;Temp;Humidity;BMP_temperature;BMP_pressure;BME280_temperature;BME280_humidity;BME280_pressure;Samples;Min_cycle;Max_cycle;Signal;HPM_P1;HPM_P2
2023/08/26 00:00:33;;;;;;;12.85;11.75;;;;;;;23.97;62.74;94865.44;5077412;28;20181;-68
2023/08/26 00:02:59;;;;;;;12.68;11.48;;;;;;;23.97;62.67;94880.31;5076493;28;20201;-68
2023/08/26 00:05:26;;;;;;;11.93;10.93;;;;;;;23.94;62.97;94877.59;5059625;28;20200;-68
2023/08/26 00:07:53;;;;;;;12.80;11.60;;;;;;;23.95;62.81;94873.53;5059672;28;20197;-68
2023/08/26 00:10:20;;;;;;;13.00;11.77;;;;;;;23.93;62.92;94873.97;5059458;28;20228;-68
2023/08/26 00:12:46;;;;;;;12.82;11.63;;;;;;;23.91;62.94;94879.25;5077255;28;20258;-68
2023/08/26 00:15:15;;;;;;;12.63;11.43;;;;;;;23.88;62.99;94879.34;5059664;28;20200;-68
2023/08/26 00:17:41;;;;;;;12.73;11.63;;;;;;;23.85;62.96;94869.75;5076745;28;20181;-68
2023/08/26 00:20:09;;;;;;;12.40;11.30;;;;;;;23.85;63.08;94872.56;5076229;28;20247;-68
2023/08/26 00:22:36;;;;;;;12.38;11.27;;;;;;;23.82;63.21;94879.13;5076002;28;20226;-68
2023/08/26 00:25:02;;;;;;;12.02;11.00;;;;;;;23.75;63.07;94870.88;5076943;28;20189;-68
2023/08/26 00:27:29;;;;;;;12.82;11.73;;;;;;;23.72;63.25;94880.19;5076821;28;20185;-68
2023/08/26 00:29:56;;;;;;;12.43;11.25;;;;;;;23.70;63.57;94866.53;5075560;28;20504;-68
2023/08/26 00:32:24;;;;;;;12.57;11.48;;;;;;;23.69;63.62;94870.59;5059177;28;20201;-68
2023/08/26 00:34:51;;;;;;;13.02;11.75;;;;;;;23.67;63.48;94863.81;5076508;28;20213;-68
2023/08/26 00:37:18;;;;;;;13.38;12.07;;;;;;;23.65;63.70;94863.47;5076406;28;20177;-68
2023/08/26 00:39:45;;;;;;;12.48;11.38;;;;;;;23.59;63.51;94863.19;5058969;28;20196;-68
2023/08/26 00:42:12;;;;;;;12.68;11.48;;;;;;;23.57;63.57;94867.69;5076664;28;20237;-68
2023/08/26 00:44:39;;;;;;;12.73;11.50;;;;;;;23.52;63.67;94864.16;5058975;28;20189;-68
2023/08/26 00:47:05;;;;;;;12.63;11.43;;;;;;;23.49;63.79;94867.06;5076586;28;20199;-68
2023/08/26 00:49:35;;;;;;;12.10;11.10;;;;;;;23.46;64.13;94865.94;5058464;28;20660;-68
2023/08/26 00:52:02;;;;;;;12.93;11.73;;;;;;;23.45;64.12;94855.91;5076336;28;20189;-68
2023/08/26 00:54:32;;;;;;;12.20;10.88;;;;;;;23.44;64.11;94856.38;5058991;28;20204;-68
2023/08/26 00:56:59;;;;;;;12.13;11.02;;;;;;;23.45;64.18;94861.53;5058860;28;20208;-68
2023/08/26 00:59:26;;;;;;;12.10;11.18;;;;;;;23.45;64.26;94857.94;5076223;28;20189;-68
2023/08/26 01:01:53;;;;;;;12.20;11.20;;;;;;;23.36;64.49;94857.78;5058286;28;20197;-68
2023/08/26 01:04:21;;;;;;;12.85;11.55;;;;;;;23.32;64.68;94857.09;5058690;28;20195;-68
2023/08/26 01:06:49;;;;;;;12.95;11.82;;;;;;;23.32;64.52;94862.72;5076111;28;20182;-68
2023/08/26 01:09:16;;;;;;;12.60;11.55;;;;;;;23.28;64.64;94857.19;5076000;28;20209;-68
2023/08/26 01:11:52;;;;;;;12.75;11.52;;;;;;;23.26;64.94;94851.97;5075954;28;20189;-68
2023/08/26 01:14:25;;;;;;;12.82;11.73;;;;;;;23.25;65.01;94860.88;5058844;28;20250;-68
2023/08/26 01:16:52;;;;;;;12.88;11.77;;;;;;;23.25;65.13;94858.06;5075624;28;20188;-68
2023/08/26 01:19:26;;;;;;;13.00;11.80;;;;;;;23.25;65.39;94860.88;5075815;28;20185;-68
2023/08/26 01:21:56;;;;;;;12.05;11.05;;;;;;;23.28;65.04;94857.19;5058261;28;20197;-68
2023/08/26 01:24:24;;;;;;;12.98;11.88;;;;;;;23.28;65.02;94860.00;5075439;28;20246;-68
2023/08/26 01:26:52;;;;;;;11.90;10.90;;;;;;;23.20;65.45;94861.38;5075771;28;20522;-68
2023/08/26 01:29:19;;;;;;;12.50;11.40;;;;;;;23.15;65.52;94868.34;5057824;28;20613;-68
2023/08/26 01:31:48;;;;;;;13.15;12.05;;;;;;;23.16;66.00;94863.50;5075730;28;20200;-68
2023/08/26 01:34:18;;;;;;;13.57;12.30;;;;;;;23.15;65.97;94867.56;5058169;28;20201;-68
2023/08/26 01:36:45;;;;;;;13.68;12.38;;;;;;;23.15;65.65;94873.19;5057997;28;20197;-68
2023/08/26 01:39:13;;;;;;;13.10;11.95;;;;;;;23.13;65.84;94870.00;5074985;28;20204;-68
2023/08/26 01:41:43;;;;;;;12.63;11.50;;;;;;;23.12;65.85;94866.41;5075073;28;20241;-68
2023/08/26 01:44:10;;;;;;;13.15;11.82;;;;;;;23.12;65.83;94863.59;5058395;28;20213;-68
2023/08/26 01:46:38;;;;;;;13.07;11.73;;;;;;;23.10;65.83;94863.25;5058207;28;20204;-68
2023/08/26 01:49:05;;;;;;;12.75;11.60;;;;;;;23.13;65.28;94878.44;5074445;28;20197;-68
2023/08/26 01:51:32;;;;;;;12.80;11.60;;;;;;;23.11;65.72;94866.84;5075343;28;20220;-68
2023/08/26 01:53:59;;;;;;;12.50;11.40;;;;;;;23.08;65.13;94874.13;5058108;28;20223;-68
2023/08/26 01:56:26;;;;;;;13.05;11.75;;;;;;;23.10;65.36;94876.53;5075029;28;20235;-68
2023/08/26 01:58:54;;;;;;;12.30;11.27;;;;;;;23.09;65.21;94863.66;5057606;28;20189;-68
2023/08/26 02:01:20;;;;;;;12.85;11.60;;;;;;;23.08;64.81;94871.31;5057366;28;20200;-68
2023/08/26 02:03:47;;;;;;;12.35;11.13;;;;;;;23.08;64.89;94868.50;5057541;28;20197;-68
2023/08/26 02:06:14;;;;;;;12.90;11.73;;;;;;;23.06;65.09;94868.19;5057930;28;20201;-68
2023/08/26 02:08:41;;;;;;;12.35;11.15;;;;;;;23.02;65.03;94859.00;5075138;28;20208;-68
2023/08/26 02:11:09;;;;;;;12.93;11.75;;;;;;;22.95;65.43;94860.00;5075089;28;20201;-68
2023/08/26 02:13:36;;;;;;;12.38;11.30;;;;;;;22.92;65.79;94854.47;5074799;28;20204;-68
2023/08/26 02:16:05;;;;;;;12.98;11.68;;;;;;;22.89;65.40;94853.28;5074733;28;20683;-68
2023/08/26 02:18:32;;;;;;;11.90;10.80;;;;;;;22.85;65.58;94854.59;5057904;28;20250;-68
2023/08/26 02:20:58;;;;;;;12.57;11.48;;;;;;;22.73;65.91;94850.44;5075145;28;20185;-68
2023/08/26 02:23:25;;;;;;;12.50;11.40;;;;;;;22.69;65.92;94846.91;5074010;28;20201;-68
2023/08/26 02:25:52;;;;;;;12.85;11.30;;;;;;;22.67;66.07;94850.19;5057457;28;20199;-68
2023/08/26 02:28:19;;;;;;;11.70;10.75;;;;;;;22.63;66.50;94838.22;5073948;28;20236;-68
2023/08/26 02:30:46;;;;;;;12.30;11.20;;;;;;;22.59;66.34;94843.13;5075053;28;20209;-68
2023/08/26 02:33:14;;;;;;;12.50;11.40;;;;;;;22.57;66.51;94835.13;5074956;28;20189;-68
2023/08/26 02:35:46;;;;;;;13.27;11.95;;;;;;;22.60;66.31;94844.72;5074263;28;20607;-68
2023/08/26 02:38:13;;;;;;;13.40;11.77;;;;;;;22.58;66.30;94845.13;5057579;28;20195;-68
2023/08/26 02:40:40;;;;;;;11.88;10.77;;;;;;;22.59;66.29;94854.38;5074793;28;20185;-68
2023/08/26 02:43:07;;;;;;;13.32;11.95;;;;;;;22.54;66.20;94847.25;5074652;28;20256;-68
2023/08/26 02:45:33;;;;;;;11.95;10.88;;;;;;;22.52;66.31;94844.09;5074747;28;20193;-68
2023/08/26 02:48:00;;;;;;;12.95;11.05;;;;;;;22.48;66.65;94843.38;5074823;28;20196;-68
2023/08/26 02:50:30;;;;;;;12.50;11.40;;;;;;;22.47;66.88;94843.81;5056965;28;20315;-68
2023/08/26 02:52:56;;;;;;;11.93;10.82;;;;;;;22.50;66.66;94838.09;5076683;28;20193;-68
2023/08/26 02:55:23;;;;;;;12.25;11.18;;;;;;;22.51;66.45;94841.69;5078274;28;20193;-68
2023/08/26 02:57:50;;;;;;;13.63;12.32;;;;;;;22.50;66.56;94849.34;5078594;28;20208;-68
2023/08/26 03:00:18;;;;;;;12.57;11.40;;;;;;;22.52;66.43;94846.09;5044439;28;20270;-68
2023/08/26 03:02:45;;;;;;;11.77;10.65;;;;;;;22.49;66.24;94849.78;5061196;28;20204;-68
2023/08/26 03:05:11;;;;;;;11.35;10.35;;;;;;;22.44;66.50;94848.28;5077620;28;20193;-68
2023/08/26 03:07:40;;;;;;;13.15;11.95;;;;;;;22.41;66.36;94840.72;5060682;28;20204;-68
2023/08/26 03:10:07;;;;;;;12.85;11.30;;;;;;;22.40;66.67;94853.16;5077863;28;20567;-68
2023/08/26 03:12:34;;;;;;;13.35;11.95;;;;;;;22.31;66.82;94850.97;5077671;28;20207;-68
2023/08/26 03:15:01;;;;;;;12.07;11.15;;;;;;;22.27;66.85;94853.06;5078261;28;20181;-68
2023/08/26 03:17:28;;;;;;;12.30;11.18;;;;;;;22.27;66.98;94861.50;5078167;28;20209;-68
2023/08/26 03:19:54;;;;;;;12.57;11.18;;;;;;;22.23;67.10;94857.19;5078374;28;20189;-68
2023/08/26 03:22:21;;;;;;;12.93;11.68;;;;;;;22.22;67.21;94849.97;5078185;28;20181;-68
2023/08/26 03:24:49;;;;;;;13.00;10.82;;;;;;;22.20;67.02;94855.25;5078112;28;20186;-68
2023/08/26 03:27:16;;;;;;;14.20;11.65;;;;;;;22.20;66.98;94861.66;5077970;28;20185;-68
2023/08/26 03:29:43;;;;;;;12.23;10.93;;;;;;;22.19;66.99;94860.06;5060314;28;20235;-68
2023/08/26 03:32:10;;;;;;;12.65;11.40;;;;;;;22.17;66.86;94868.13;5077838;28;20204;-68
2023/08/26 03:34:37;;;;;;;12.65;11.45;;;;;;;22.13;67.06;94870.19;5078204;28;20204;-68
2023/08/26 03:37:04;;;;;;;12.13;10.98;;;;;;;22.11;67.12;94870.63;5060566;28;20254;-68
2023/08/26 03:39:31;;;;;;;12.02;10.90;;;;;;;22.08;66.75;94882.72;5077786;28;20204;-68
2023/08/26 03:41:59;;;;;;;11.80;10.60;;;;;;;22.05;67.37;94882.78;5077631;28;20240;-68
2023/08/26 03:44:26;;;;;;;12.20;11.20;;;;;;;21.99;67.28;94876.09;5077532;28;20208;-68
2023/08/26 03:46:52;;;;;;;12.63;11.52;;;;;;;21.97;67.45;94881.34;5077691;28;20196;-68
2023/08/26 03:49:19;;;;;;;12.15;10.98;;;;;;;22.00;67.42;94886.88;5060231;28;20201;-68
2023/08/26 03:51:46;;;;;;;13.27;11.85;;;;;;;22.04;67.90;94878.38;5077430;28;20209;-68
2023/08/26 03:54:12;;;;;;;12.70;11.60;;;;;;;22.02;67.72;94883.66;5060206;28;20574;-68
2023/08/26 03:56:39;;;;;;;13.07;11.88;;;;;;;22.03;67.38;94893.66;5077502;28;20200;-68
2023/08/26 03:59:08;;;;;;;12.73;11.48;;;;;;;22.02;67.82;94886.47;5077223;28;20200;-68
2023/08/26 04:01:35;;;;;;;12.93;11.63;;;;;;;21.99;67.63;94890.91;5076421;28;20259;-68
2023/08/26 04:04:02;;;;;;;13.73;12.43;;;;;;;21.98;67.83;94891.38;5058598;28;20201;-68
2023/08/26 04:06:28;;;;;;;13.25;12.05;;;;;;;21.96;67.81;94888.19;5077468;28;20200;-68
2023/08/26 04:08:55;;;;;;;13.18;11.85;;;;;;;21.92;68.03;94890.28;5059782;28;20193;-68
2023/08/26 04:11:22;;;;;;;13.48;12.10;;;;;;;21.93;67.86;94889.03;5059266;28;20217;-68
2023/08/26 04:13:48;;;;;;;13.43;12.13;;;;;;;21.93;67.84;94889.03;5076204;28;20205;-68
2023/08/26 04:16:19;;;;;;;12.98;11.77;;;;;;;21.92;67.98;94898.69;5059587;28;20225;-68
2023/08/26 04:18:46;;;;;;;12.80;11.50;;;;;;;21.93;68.30;94894.66;5059592;28;20201;-68
2023/08/26 04:21:12;;;;;;;13.48;12.25;;;;;;;21.87;68.36;94897.97;5076929;28;20197;-68
2023/08/26 04:23:39;;;;;;;13.95;12.32;;;;;;;21.87;68.46;94891.56;5059408;28;20553;-68
2023/08/26 04:26:06;;;;;;;13.43;12.10;;;;;;;21.93;67.88;94894.66;5077369;28;20204;-68
2023/08/26 04:28:32;;;;;;;13.82;12.45;;;;;;;21.94;68.17;94897.03;5059875;28;20201;-68
2023/08/26 04:31:00;;;;;;;14.40;12.88;;;;;;;21.91;68.33;94897.13;5059394;28;20641;-68
2023/08/26 04:33:29;;;;;;;14.68;12.88;;;;;;;21.87;68.43;94902.81;5076511;28;20597;-68
2023/08/26 04:35:56;;;;;;;16.30;12.45;;;;;;;21.90;68.63;94901.16;5059456;28;20216;-68
2023/08/26 04:38:22;;;;;;;15.43;13.18;;;;;;;21.90;68.76;94901.16;5076852;28;20193;-68
2023/08/26 04:40:49;;;;;;;14.63;13.00;;;;;;;21.91;68.86;94900.72;5076200;28;20189;-68
2023/08/26 04:43:16;;;;;;;13.32;12.02;;;;;;;21.95;68.74;94904.25;5076523;28;20294;-68
2023/08/26 04:45:43;;;;;;;14.05;12.55;;;;;;;21.98;68.72;94906.19;5076159;28;20207;-68
2023/08/26 04:48:10;;;;;;;15.52;12.70;;;;;;;22.01;68.56;94910.94;5059470;28;20274;-68
2023/08/26 04:50:40;;;;;;;14.85;13.45;;;;;;;22.02;69.33;94909.72;5076268;28;20216;-68
2023/08/26 04:53:07;;;;;;;15.45;13.80;;;;;;;22.03;69.05;94916.91;5059053;28;20280;-68
2023/08/26 04:55:33;;;;;;;13.93;12.43;;;;;;;22.05;68.81;94916.50;5076459;28;20258;-68
2023/08/26 04:58:00;;;;;;;13.85;12.65;;;;;;;22.09;68.93;94915.19;5059036;28;20204;-68
2023/08/26 05:00:27;;;;;;;14.57;12.55;;;;;;;22.11;68.54;94918.38;5058379;28;20205;-68
2023/08/26 05:02:53;;;;;;;13.88;12.63;;;;;;;22.12;68.32;94916.34;5058615;28;20538;-68
2023/08/26 05:05:20;;;;;;;14.00;12.65;;;;;;;22.11;68.19;94915.56;5076169;28;20193;-68
2023/08/26 05:07:49;;;;;;;14.20;12.90;;;;;;;22.15;68.19;94915.53;5075241;28;20250;-68
2023/08/26 05:10:15;;;;;;;14.13;12.75;;;;;;;22.20;68.05;94912.19;5058928;28;20196;-68
2023/08/26 05:12:42;;;;;;;14.00;12.60;;;;;;;22.24;67.96;94906.50;5075954;28;20197;-68
2023/08/26 05:15:10;;;;;;;13.52;12.23;;;;;;;22.26;67.94;94907.69;5075274;28;20189;-68
2023/08/26 05:17:36;;;;;;;14.38;12.77;;;;;;;22.27;68.06;94909.25;5058051;28;20209;-68
2023/08/26 05:20:04;;;;;;;13.38;12.23;;;;;;;22.29;68.15;94906.78;5076118;28;20181;-68
2023/08/26 05:22:30;;;;;;;13.65;12.43;;;;;;;22.31;68.28;94903.56;5076321;28;20185;-68
2023/08/26 05:24:58;;;;;;;14.75;13.25;;;;;;;22.30;68.09;94913.22;5057934;28;20208;-68
2023/08/26 05:27:26;;;;;;;15.07;13.60;;;;;;;22.33;67.83;94909.50;5075405;28;20181;-68
2023/08/26 05:29:54;;;;;;;14.63;13.05;;;;;;;22.36;68.00;94917.09;5075657;28;20217;-68
2023/08/26 05:32:20;;;;;;;13.50;12.30;;;;;;;22.41;67.99;94919.41;5075259;28;20782;-68
2023/08/26 05:34:47;;;;;;;13.88;12.48;;;;;;;22.44;68.22;94912.09;5075810;28;20192;-68
2023/08/26 05:37:14;;;;;;;13.27;12.07;;;;;;;22.45;68.26;94913.72;5075383;28;20205;-68
2023/08/26 05:39:40;;;;;;;13.90;12.57;;;;;;;22.47;68.18;94909.22;5075168;28;20185;-68
2023/08/26 05:42:09;;;;;;;14.05;12.50;;;;;;;22.50;67.88;94913.19;5075884;28;20240;-68
2023/08/26 05:44:35;;;;;;;14.93;12.82;;;;;;;22.51;67.52;94915.59;5075222;28;20185;-68
2023/08/26 05:47:02;;;;;;;13.55;12.25;;;;;;;22.54;67.62;94913.91;5057863;28;20201;-68
2023/08/26 05:49:30;;;;;;;13.85;12.45;;;;;;;22.57;67.84;94908.19;5074468;28;20197;-68
2023/08/26 05:51:56;;;;;;;14.30;13.02;;;;;;;22.62;68.00;94914.53;5075364;28;20237;-68
2023/08/26 05:54:23;;;;;;;14.65;13.15;;;;;;;22.65;66.90;94913.66;5075317;28;20196;-68
2023/08/26 05:56:50;;;;;;;14.30;12.95;;;;;;;22.67;67.48;94909.19;5075459;28;20185;-68
2023/08/26 05:59:18;;;;;;;14.38;13.07;;;;;;;22.71;66.91;94909.91;5074528;28;20204;-68
2023/08/26 06:01:44;;;;;;;15.32;13.93;;;;;;;22.74;66.96;94911.06;5074853;28;20215;-68
2023/08/26 06:04:12;;;;;;;15.48;14.02;;;;;;;22.74;67.21;94914.66;5058122;28;20204;-68
2023/08/26 06:06:38;;;;;;;15.13;13.63;;;;;;;22.74;67.42;94911.06;5075251;28;20211;-68
2023/08/26 06:09:05;;;;;;;15.50;13.95;;;;;;;22.79;67.12;94910.53;5057986;28;20208;-68
2023/08/26 06:11:32;;;;;;;15.25;13.65;;;;;;;22.86;66.84;94916.00;5075083;28;20217;-68
2023/08/26 06:13:59;;;;;;;15.88;14.40;;;;;;;22.93;66.41;94917.91;5057896;28;20189;-68
2023/08/26 06:16:27;;;;;;;17.33;13.68;;;;;;;22.98;66.48;94911.75;5057996;28;20678;-68
2023/08/26 06:18:54;;;;;;;15.48;13.98;;;;;;;22.99;65.98;94914.13;5074968;28;20189;-68
2023/08/26 06:21:20;;;;;;;14.52;13.32;;;;;;;23.03;66.00;94908.44;5075022;28;20596;-68
2023/08/26 06:23:47;;;;;;;15.55;14.00;;;;;;;23.05;66.28;94915.16;5057550;28;20197;-68
2023/08/26 06:26:14;;;;;;;15.18;13.68;;;;;;;23.08;65.82;94904.28;5057324;28;20201;-68
2023/08/26 06:28:40;;;;;;;16.05;14.45;;;;;;;23.09;66.22;94909.47;5077500;28;20262;-68
2023/08/26 06:31:07;;;;;;;15.48;13.93;;;;;;;23.10;66.79;94918.72;5061102;28;20220;-68
2023/08/26 06:33:35;;;;;;;16.27;14.45;;;;;;;23.14;66.42;94920.22;5061099;28;20189;-68
2023/08/26 06:36:02;;;;;;;16.33;14.63;;;;;;;23.17;65.82;94927.00;5078279;28;20197;-68
2023/08/26 06:38:29;;;;;;;15.93;14.23;;;;;;;23.19;65.22;94928.13;5078986;28;20247;-68
2023/08/26 06:40:56;;;;;;;16.75;14.90;;;;;;;23.22;65.38;94926.44;5078610;28;20197;-68
2023/08/26 06:43:23;;;;;;;16.70;15.10;;;;;;;23.26;65.51;94932.78;5078545;28;20244;-68
2023/08/26 06:45:51;;;;;;;17.33;15.60;;;;;;;23.30;65.61;94928.66;5078994;28;20193;-68
2023/08/26 06:48:18;;;;;;;14.88;13.32;;;;;;;23.34;65.66;94930.59;5079063;28;20188;-68
2023/08/26 06:50:49;;;;;;;15.10;13.77;;;;;;;23.38;65.58;94934.88;5060960;28;20192;-68
2023/08/26 06:53:20;;;;;;;15.07;13.68;;;;;;;23.42;64.78;94929.16;5061170;28;20231;-68
2023/08/26 06:55:49;;;;;;;15.98;14.48;;;;;;;23.49;64.58;94923.38;5060855;28;20193;-68
2023/08/26 06:58:16;;;;;;;16.35;14.55;;;;;;;23.52;64.85;94934.53;5078310;28;20247;-68
2023/08/26 07:00:43;;;;;;;16.35;14.85;;;;;;;23.54;64.53;94929.28;5060654;28;20234;-68
2023/08/26 07:03:10;;;;;;;15.50;14.07;;;;;;;23.58;64.49;94934.03;5078454;28;20182;-68
2023/08/26 07:05:38;;;;;;;20.73;18.67;;;;;;;23.62;63.87;94932.69;5060833;28;20318;-68
2023/08/26 07:08:06;;;;;;;15.80;14.38;;;;;;;23.68;63.46;94924.53;5078301;28;20236;-68
2023/08/26 07:10:33;;;;;;;13.60;12.40;;;;;;;23.75;63.23;94932.81;5077924;28;20212;-68
2023/08/26 07:13:00;;;;;;;14.82;12.63;;;;;;;23.79;63.25;94930.69;5078214;28;20266;-68
2023/08/26 07:15:26;;;;;;;13.57;12.27;;;;;;;23.83;62.84;94925.75;5060740;28;20185;-68
2023/08/26 07:17:54;;;;;;;12.85;11.60;;;;;;;23.87;62.84;94929.25;5078139;28;20197;-68
2023/08/26 07:20:21;;;;;;;21.63;19.67;;;;;;;23.92;62.15;94930.72;5078539;28;20270;-68
2023/08/26 07:22:49;;;;;;;14.00;12.70;;;;;;;23.96;61.24;94920.94;5077882;28;20519;-68
2023/08/26 07:25:17;;;;;;;14.35;13.05;;;;;;;24.00;61.52;94930.13;5077784;28;20662;-68
2023/08/26 07:27:45;;;;;;;13.43;12.30;;;;;;;24.09;60.42;94921.03;5077668;28;20551;-68
2023/08/26 07:30:13;;;;;;;13.52;12.23;;;;;;;24.13;60.68;94916.06;5060405;28;20212;-68
2023/08/26 07:32:40;;;;;;;14.35;12.90;;;;;;;24.18;60.51;94923.19;5077564;28;20220;-68
2023/08/26 07:35:08;;;;;;;15.27;13.73;;;;;;;24.27;60.44;94918.50;5060539;28;20193;-68
2023/08/26 07:37:34;;;;;;;13.00;11.88;;;;;;;24.38;60.02;94921.00;5077459;28;20243;-68
2023/08/26 07:40:01;;;;;;;14.38;12.57;;;;;;;24.44;59.75;94924.91;5077833;28;20205;-68
2023/08/26 07:42:30;;;;;;;13.10;11.80;;;;;;;24.47;59.02;94920.38;5060239;28;20236;-68
2023/08/26 07:44:56;;;;;;;12.65;11.55;;;;;;;24.54;58.70;94917.34;5060193;28;20201;-68
2023/08/26 07:47:23;;;;;;;13.40;11.43;;;;;;;24.59;59.04;94922.44;5077902;28;20189;-68
2023/08/26 07:49:50;;;;;;;12.52;11.25;;;;;;;24.79;58.06;94919.41;5077955;28;20190;-68
2023/08/26 07:52:16;;;;;;;12.52;11.35;;;;;;;24.84;58.19;94918.88;5060008;28;20213;-68
2023/08/26 07:54:43;;;;;;;12.23;10.50;;;;;;;25.01;57.08;94911.09;5077337;28;20197;-68
2023/08/26 07:57:10;;;;;;;11.77;10.48;;;;;;;25.20;56.52;94906.47;5060002;28;20200;-68
2023/08/26 07:59:39;;;;;;;12.57;10.93;;;;;;;25.32;56.57;94908.53;5059643;28;20205;-68
2023/08/26 08:02:06;;;;;;;11.48;10.27;;;;;;;25.45;56.47;94912.13;5077882;28;20246;-68
2023/08/26 08:04:32;;;;;;;12.05;10.75;;;;;;;25.51;56.19;94903.06;5060142;28;20200;-68
2023/08/26 08:06:59;;;;;;;11.48;9.98;;;;;;;25.64;55.86;94904.63;5059728;28;20247;-68
2023/08/26 08:09:26;;;;;;;12.15;10.90;;;;;;;25.82;54.37;94903.28;5059696;28;20208;-68
2023/08/26 08:11:52;;;;;;;11.80;10.70;;;;;;;26.04;54.70;94892.78;5059261;28;20209;-68
2023/08/26 08:14:19;;;;;;;11.70;10.65;;;;;;;26.23;53.60;94890.13;5077340;28;20196;-68
2023/08/26 08:16:47;;;;;;;10.85;9.95;;;;;;;26.37;52.21;94892.41;5059750;28;20189;-68
2023/08/26 08:19:14;;;;;;;10.95;9.98;;;;;;;26.44;52.59;94888.53;5077150;28;20193;-68
2023/08/26 08:21:41;;;;;;;11.10;9.93;;;;;;;26.44;53.09;94883.66;5077045;28;20185;-68
2023/08/26 08:24:08;;;;;;;12.13;10.98;;;;;;;26.50;52.45;94884.66;5059123;28;20617;-68
2023/08/26 08:26:35;;;;;;;12.75;10.40;;;;;;;26.55;52.52;94877.63;5076997;28;20189;-68
2023/08/26 08:29:02;;;;;;;11.55;10.38;;;;;;;26.73;51.49;94882.63;5076135;28;20197;-68
2023/08/26 08:31:29;;;;;;;11.60;10.00;;;;;;;26.75;51.65;94877.25;5075857;28;20197;-68
2023/08/26 08:33:57;;;;;;;11.45;10.15;;;;;;;26.82;52.08;94874.94;5076398;28;20208;-68
2023/08/26 08:36:23;;;;;;;13.82;12.55;;;;;;;26.94;50.64;94880.97;5076903;28;20193;-68
2023/08/26 08:38:50;;;;;;;12.52;11.32;;;;;;;27.20;50.85;94879.56;5075676;28;20678;-68
2023/08/26 08:41:18;;;;;;;11.45;10.48;;;;;;;27.42;50.24;94875.84;5059171;28;20205;-68
2023/08/26 08:43:46;;;;;;;13.43;10.45;;;;;;;27.58;48.23;94884.06;5076109;28;20244;-68
2023/08/26 08:46:14;;;;;;;10.52;9.60;;;;;;;27.69;48.22;94878.72;5059803;28;20308;-68
2023/08/26 08:48:41;;;;;;;11.32;9.85;;;;;;;27.81;48.32;94877.81;5059050;28;20197;-68
2023/08/26 08:51:09;;;;;;;10.77;9.60;;;;;;;27.98;47.53;94871.88;5075773;28;20196;-68
2023/08/26 08:53:40;;;;;;;11.40;10.40;;;;;;;28.03;47.35;94876.88;5058738;28;20220;-68
2023/08/26 08:56:07;;;;;;;11.18;10.23;;;;;;;28.12;46.64;94879.75;5059266;28;20251;-68
2023/08/26 08:58:34;;;;;;;11.60;10.43;;;;;;;28.19;46.19;94876.59;5076304;28;20263;-68
2023/08/26 09:01:01;;;;;;;11.27;10.02;;;;;;;28.31;45.55;94877.69;5075009;28;20628;-68
2023/08/26 09:03:28;;;;;;;10.35;9.45;;;;;;;28.45;46.06;94871.41;5075874;28;20193;-68
2023/08/26 09:05:54;;;;;;;11.13;10.07;;;;;;;28.50;46.77;94864.28;5076177;28;20251;-68
2023/08/26 09:08:23;;;;;;;11.25;10.15;;;;;;;28.52;46.00;94859.72;5058683;28;20201;-68
2023/08/26 09:10:51;;;;;;;10.63;9.63;;;;;;;28.55;46.20;94861.63;5076094;28;20193;-68
2023/08/26 09:13:18;;;;;;;10.77;9.73;;;;;;;28.69;46.46;94853.72;5058614;28;20220;-68
2023/08/26 09:15:44;;;;;;;11.02;9.95;;;;;;;28.79;46.02;94861.69;5058312;28;20194;-68
2023/08/26 09:18:12;;;;;;;12.50;11.20;;;;;;;28.94;45.39;94866.69;5075658;28;20189;-68
2023/08/26 09:20:39;;;;;;;11.52;10.35;;;;;;;29.19;44.22;94857.78;5075517;28;20211;-68
2023/08/26 09:23:07;;;;;;;11.63;10.55;;;;;;;29.41;43.90;94859.56;5075503;28;20256;-68
2023/08/26 09:25:36;;;;;;;12.18;11.02;;;;;;;29.50;43.94;94862.38;5074787;28;20209;-68
2023/08/26 09:28:04;;;;;;;11.15;10.15;;;;;;;29.56;43.07;94849.09;5075787;28;20192;-68
2023/08/26 09:30:30;;;;;;;10.60;9.80;;;;;;;29.58;42.37;94855.09;5058141;28;20201;-68
2023/08/26 09:32:57;;;;;;;11.85;10.85;;;;;;;29.68;43.02;94842.41;5058174;28;20217;-68
2023/08/26 09:35:24;;;;;;;11.30;10.30;;;;;;;29.74;42.14;94848.22;5075547;28;20233;-68
2023/08/26 09:37:57;;;;;;;11.98;10.88;;;;;;;29.78;41.55;94848.00;5075190;28;20543;-68
2023/08/26 09:40:25;;;;;;;12.07;10.98;;;;;;;29.82;41.78;94845.78;5075363;28;20185;-68
2023/08/26 09:42:54;;;;;;;11.02;10.13;;;;;;;29.96;41.69;94840.16;5054277;28;20233;-68
2023/08/26 09:45:20;;;;;;;12.10;11.02;;;;;;;30.11;41.01;94836.56;5054366;28;20202;-68
2023/08/26 09:47:49;;;;;;;10.77;9.77;;;;;;;30.25;39.91;94837.88;5055184;28;20610;-68
2023/08/26 09:50:16;;;;;;;12.13;11.02;;;;;;;30.18;40.59;94837.00;5055091;28;20225;-68
2023/08/26 09:52:43;;;;;;;11.60;10.68;;;;;;;30.19;40.81;94830.03;5054505;28;20279;-68
2023/08/26 09:55:10;;;;;;;11.90;10.88;;;;;;;30.30;40.91;94823.00;5055102;28;20655;-68
2023/08/26 09:57:37;;;;;;;11.55;10.55;;;;;;;30.28;40.09;94817.78;5054982;28;20201;-68
2023/08/26 10:00:10;;;;;;;11.43;10.40;;;;;;;30.30;40.24;94823.78;5054910;28;20210;-68
2023/08/26 10:02:38;;;;;;;11.32;10.43;;;;;;;30.33;39.67;94825.63;5054886;28;20197;-68
2023/08/26 10:05:07;;;;;;;10.93;10.02;;;;;;;30.38;39.94;94815.63;5054516;28;20271;-68
2023/08/26 10:07:34;;;;;;;11.50;10.50;;;;;;;30.46;39.55;94816.81;5054053;28;20205;-68
2023/08/26 10:10:07;;;;;;;12.05;10.98;;;;;;;30.61;39.45;94822.50;5055371;28;20193;-68
2023/08/26 10:12:39;;;;;;;10.48;9.63;;;;;;;30.74;38.02;94813.69;5054808;28;20720;-68
2023/08/26 10:15:10;;;;;;;10.52;9.73;;;;;;;30.47;37.65;94812.72;5054826;28;20186;-68
2023/08/26 10:17:37;;;;;;;10.55;9.55;;;;;;;30.26;37.92;94808.97;5053812;28;20194;-68
2023/08/26 10:20:06;;;;;;;10.57;9.57;;;;;;;30.12;38.91;94810.47;5054032;28;20210;-68
2023/08/26 10:22:33;;;;;;;10.82;9.60;;;;;;;30.18;39.38;94808.56;5070851;28;20539;-68
2023/08/26 10:25:00;;;;;;;10.27;9.27;;;;;;;30.36;38.69;94799.06;5055151;28;20189;-68
2023/08/26 10:27:27;;;;;;;9.30;8.57;;;;;;;30.47;38.61;94801.31;5053734;28;20206;-68
2023/08/26 10:29:55;;;;;;;9.93;9.02;;;;;;;30.60;37.81;94806.72;5054903;28;20268;-68
2023/08/26 10:32:24;;;;;;;10.05;9.25;;;;;;;30.68;37.01;94799.34;5054788;28;20262;-68
2023/08/26 10:34:54;;;;;;;9.73;8.80;;;;;;;30.70;37.44;94785.41;5054550;28;20186;-68
2023/08/26 10:37:21;;;;;;;10.50;9.60;;;;;;;30.84;37.43;94789.56;5053766;28;20189;-68
2023/08/26 10:39:47;;;;;;;10.20;9.20;;;;;;;31.15;36.94;94786.91;5054808;28;20232;-68
2023/08/26 10:42:16;;;;;;;10.48;9.68;;;;;;;31.31;36.21;94782.78;5061930;28;20544;-68
2023/08/26 10:44:45;;;;;;;9.43;8.65;;;;;;;31.36;35.93;94789.84;5057392;28;20197;-68
2023/08/26 10:47:12;;;;;;;9.88;9.00;;;;;;;31.53;35.96;94781.53;5057552;28;20197;-68
2023/08/26 10:49:41;;;;;;;10.35;9.55;;;;;;;31.65;35.71;94786.88;5056807;28;20254;-68
2023/08/26 10:52:08;;;;;;;9.40;8.68;;;;;;;31.67;35.51;94777.84;5057690;28;20208;-68
2023/08/26 10:54:36;;;;;;;10.45;9.55;;;;;;;31.67;35.20;94779.91;5074810;28;20212;-68
2023/08/26 10:57:04;;;;;;;10.73;9.77;;;;;;;31.69;35.74;94780.16;5057225;28;20201;-68
2023/08/26 10:59:35;;;;;;;10.30;9.30;;;;;;;31.81;35.60;94776.16;5056957;28;20532;-68
2023/08/26 11:02:02;;;;;;;10.05;9.20;;;;;;;31.86;34.94;94767.72;5074760;28;20243;-68
2023/08/26 11:04:30;;;;;;;10.48;9.50;;;;;;;31.99;34.69;94769.41;5074356;28;20477;-68
2023/08/26 11:06:58;;;;;;;10.65;9.85;;;;;;;32.01;34.50;94770.47;5057306;28;20201;-68
2023/08/26 11:09:24;;;;;;;10.48;9.68;;;;;;;31.96;34.08;94762.66;5074342;28;20200;-68
2023/08/26 11:11:51;;;;;;;10.75;9.73;;;;;;;31.93;34.42;94760.81;5074280;28;20185;-68
2023/08/26 11:14:18;;;;;;;10.73;9.77;;;;;;;31.92;35.30;94762.09;5076838;28;20224;-68
2023/08/26 11:16:45;;;;;;;11.38;10.25;;;;;;;31.97;35.28;94755.66;5078012;28;20190;-68
2023/08/26 11:19:12;;;;;;;10.77;9.90;;;;;;;32.07;34.66;94753.44;5078185;28;20204;-68